createdAt,value
2022-11-07T00:00:32.470Z,101953.84
2022-11-07T00:03:01.594Z,101958.09
2022-11-07T00:05:29.252Z,101959.84
2022-11-07T00:07:57.926Z,101950.13
2022-11-07T00:10:25.304Z,101957.16
2022-11-07T00:12:52.523Z,101948.19
2022-11-07T00:15:20.972Z,101945.84
2022-11-07T00:17:49.423Z,101944.13
2022-11-07T00:20:16.681Z,101943.25
2022-11-07T00:22:46.407Z,101945.03
2022-11-07T00:25:13.821Z,101944.16
2022-11-07T00:27:41.185Z,101942.31
2022-11-07T00:30:13.508Z,101950.44
2022-11-07T00:32:42.089Z,101949.56
2022-11-07T00:35:09.820Z,101952.22
2022-11-07T00:37:39.837Z,101945.97
2022-11-07T00:40:21.265Z,101939.78
2022-11-07T00:42:48.635Z,101945.22
2022-11-07T00:45:17.657Z,101953.28
2022-11-07T00:47:45.493Z,101948.88
2022-11-07T00:50:14.273Z,101943.50
2022-11-07T00:52:42.343Z,101941.63
2022-11-07T00:55:11.020Z,101936.25
2022-11-07T00:57:39.277Z,101941.44
2022-11-07T01:00:07.333Z,101938.78
2022-11-07T01:02:34.780Z,101929.00
2022-11-07T01:05:11.035Z,101930.84
2022-11-07T01:07:41.757Z,101931.69
2022-11-07T01:10:13.094Z,101927.31
2022-11-07T01:12:41.190Z,101925.47
2022-11-07T01:15:09.071Z,101929.19
2022-11-07T01:17:38.055Z,101920.25
2022-11-07T01:20:06.135Z,101913.22
2022-11-07T01:22:34.875Z,101912.22
2022-11-07T01:25:02.129Z,101914.84
2022-11-07T01:27:31.252Z,101916.81
2022-11-07T01:29:58.429Z,101908.09
2022-11-07T01:32:28.656Z,101910.69
2022-11-07T01:34:55.997Z,101897.19
2022-11-07T01:37:23.230Z,101901.66
2022-11-07T01:39:50.441Z,101902.63
2022-11-07T01:42:20.503Z,101896.38
2022-11-07T01:44:54.093Z,101896.31
2022-11-07T01:47:25.485Z,101884.72
2022-11-07T01:49:53.305Z,101883.06
2022-11-07T01:52:27.438Z,101880.34
2022-11-07T01:55:12.338Z,101881.31
2022-11-07T01:57:44.218Z,101884.00
2022-11-07T02:00:15.200Z,101868.03
2022-11-07T02:02:43.057Z,101870.66
2022-11-07T02:05:10.734Z,101872.34
2022-11-07T02:07:42.739Z,101871.44
2022-11-07T02:10:11.287Z,101868.75
2022-11-07T02:12:40.121Z,101866.09
2022-11-07T02:15:10.953Z,101870.66
2022-11-07T02:17:38.619Z,101873.28
2022-11-07T02:20:06.990Z,101874.34
2022-11-07T02:22:50.782Z,101884.06
2022-11-07T02:25:19.862Z,101877.94
2022-11-07T02:27:49.127Z,101880.53
2022-11-07T02:30:20.538Z,101881.41
2022-11-07T02:32:48.025Z,101886.72
2022-11-07T02:35:45.717Z,101882.31
2022-11-07T02:38:14.674Z,101879.56
2022-11-07T02:40:44.461Z,101880.41
2022-11-07T02:43:15.927Z,101884.81
2022-11-07T02:45:45.066Z,101877.69
2022-11-07T02:48:12.409Z,101873.28
2022-11-07T02:50:40.830Z,101884.00
2022-11-07T02:53:11.185Z,101868.09
2022-11-07T02:55:38.818Z,101863.75
2022-11-07T02:58:06.086Z,101858.44
2022-11-07T03:00:33.642Z,101862.00
2022-11-07T03:03:00.969Z,101865.44
2022-11-07T03:05:28.506Z,101860.91
2022-11-07T03:07:55.711Z,101856.47
2022-11-07T03:10:22.944Z,101860.03
2022-11-07T03:12:50.113Z,101863.56
2022-11-07T03:15:17.629Z,101861.91
2022-11-07T03:17:44.930Z,101858.38
2022-11-07T03:20:12.903Z,101861.75
2022-11-07T03:22:40.198Z,101864.38
2022-11-07T03:25:08.714Z,101855.56
2022-11-07T03:27:46.591Z,101864.56
2022-11-07T03:30:14.341Z,101846.81
2022-11-07T03:32:41.620Z,101852.97
2022-11-07T03:35:09.537Z,101853.06
2022-11-07T03:37:38.685Z,101854.78
2022-11-07T03:40:07.128Z,101863.84
2022-11-07T03:42:42.010Z,101847.78
2022-11-07T03:45:11.053Z,101843.28
2022-11-07T03:47:42.755Z,101838.75
2022-11-07T03:50:14.895Z,101841.47
2022-11-07T03:52:42.861Z,101840.53
2022-11-07T03:55:11.225Z,101845.88
2022-11-07T03:57:38.889Z,101845.00
2022-11-07T04:00:07.412Z,101840.72
2022-11-07T04:02:35.175Z,101837.06
2022-11-07T04:05:02.492Z,101835.28
2022-11-07T04:07:30.500Z,101839.72
2022-11-07T04:10:04.432Z,101833.59
2022-11-07T04:12:50.211Z,101845.06
2022-11-07T04:15:36.486Z,101843.28
2022-11-07T04:18:03.904Z,101839.75
2022-11-07T04:20:32.554Z,101833.56
2022-11-07T04:22:59.719Z,101837.00
2022-11-07T04:25:45.510Z,101836.00
2022-11-07T04:28:12.815Z,101827.19
2022-11-07T04:30:40.748Z,101832.59
2022-11-07T04:33:07.914Z,101826.50
2022-11-07T04:35:35.257Z,101825.69
2022-11-07T04:38:02.463Z,101838.00
2022-11-07T04:40:30.589Z,101837.13
2022-11-07T04:42:57.941Z,101827.50
2022-11-07T04:45:25.226Z,101826.63
2022-11-07T04:47:52.649Z,101828.31
2022-11-07T04:50:21.344Z,101834.41
2022-11-07T04:52:48.608Z,101831.63
2022-11-07T04:55:22.357Z,101847.47
2022-11-07T04:57:49.691Z,101844.88
2022-11-07T05:00:18.403Z,101839.59
2022-11-07T05:02:46.618Z,101846.59
2022-11-07T05:05:14.275Z,101844.06
2022-11-07T05:07:41.878Z,101842.19
2022-11-07T05:10:19.831Z,101847.47
2022-11-07T05:12:47.374Z,101835.88
2022-11-07T05:15:15.577Z,101842.19
2022-11-07T05:17:43.234Z,101843.94
2022-11-07T05:20:22.815Z,101845.75
2022-11-07T05:23:08.828Z,101851.94
2022-11-07T05:25:42.058Z,101861.75
2022-11-07T05:28:14.537Z,101860.78
2022-11-07T05:30:43.501Z,101858.00
2022-11-07T05:33:12.811Z,101859.72
2022-11-07T05:35:42.528Z,101859.66
2022-11-07T05:38:10.090Z,101860.59
2022-11-07T05:40:39.550Z,101857.91
2022-11-07T05:43:08.825Z,101856.97
2022-11-07T05:45:38.211Z,101857.09
2022-11-07T05:48:07.705Z,101862.69
2022-11-07T05:50:35.823Z,101852.97
2022-11-07T05:53:04.352Z,101854.69
2022-11-07T05:55:32.376Z,101869.69
2022-11-07T05:58:05.702Z,101855.31
2022-11-07T06:00:34.617Z,101869.38
2022-11-07T06:03:02.042Z,101861.22
2022-11-07T06:05:29.527Z,101863.91
2022-11-07T06:07:59.587Z,101867.50
2022-11-07T06:10:27.006Z,101870.22
2022-11-07T06:13:05.147Z,101878.44
2022-11-07T06:15:40.191Z,101868.50
2022-11-07T06:18:10.218Z,101861.25
2022-11-07T06:20:38.015Z,101862.69
2022-11-07T06:23:06.255Z,101864.31
2022-11-07T06:25:33.611Z,101858.25
2022-11-07T06:28:09.414Z,101856.63
2022-11-07T06:30:37.481Z,101857.50
2022-11-07T06:33:09.131Z,101849.47
2022-11-07T06:35:38.692Z,101847.06
2022-11-07T06:38:20.237Z,101847.78
2022-11-07T06:41:16.699Z,101835.97
2022-11-07T06:43:59.230Z,101838.53
2022-11-07T06:46:31.910Z,101834.84
2022-11-07T06:49:02.995Z,101839.03
2022-11-07T06:51:36.754Z,101834.41
2022-11-07T06:54:04.400Z,101834.56
2022-11-07T06:56:33.529Z,101818.63
2022-11-07T06:59:01.128Z,101832.72
2022-11-07T07:04:26.701Z,101819.13
2022-11-07T07:06:55.363Z,101825.84
2022-11-07T07:09:22.634Z,101829.78
2022-11-07T07:11:50.268Z,101819.75
2022-11-07T07:14:20.129Z,101828.97
2022-11-07T07:16:49.057Z,101826.88
2022-11-07T07:19:16.534Z,101827.75
2022-11-07T07:21:49.692Z,101820.47
2022-11-07T07:24:20.617Z,101821.88
2022-11-07T07:41:40.308Z,101828.31
2022-11-07T08:02:12.943Z,101812.16
2022-11-07T08:04:42.051Z,101813.28
2022-11-07T08:07:28.260Z,101809.34
2022-11-07T08:09:59.353Z,101807.84
2022-11-07T08:31:27.630Z,101783.50
2022-11-07T08:38:29.827Z,101772.84
2022-11-07T08:40:59.461Z,101779.47
2022-11-07T08:43:31.137Z,101776.75
2022-11-07T08:46:02.278Z,101779.00
2022-11-07T08:48:30.478Z,101773.44
2022-11-07T08:50:59.614Z,101783.88
2022-11-07T08:53:27.644Z,101772.97
2022-11-07T08:56:08.539Z,101773.25
2022-11-07T08:58:37.472Z,101777.56
2022-11-07T09:01:08.529Z,101781.72
2022-11-07T09:03:46.179Z,101776.44
2022-11-07T09:06:15.032Z,101774.75
2022-11-07T09:08:42.392Z,101769.34
2022-11-07T09:11:09.835Z,101769.34
2022-11-07T09:13:38.640Z,101771.59
2022-11-07T09:16:06.173Z,101769.19
2022-11-07T09:18:36.572Z,101776.03
2022-11-07T09:21:04.320Z,101766.69
2022-11-07T09:23:31.881Z,101764.31
2022-11-07T09:26:03.783Z,101755.41
2022-11-07T09:28:31.049Z,101756.78
2022-11-07T09:31:01.979Z,101748.13
2022-11-07T09:33:30.089Z,101742.97
2022-11-07T09:36:02.416Z,101752.25
2022-11-07T09:39:01.394Z,101746.31
2022-11-07T09:41:54.709Z,101736.81
2022-11-07T09:44:30.536Z,101734.31
2022-11-07T09:47:17.378Z,101741.41
2022-11-07T09:49:45.852Z,101743.59
2022-11-07T09:52:33.687Z,101734.97
2022-11-07T09:55:31.041Z,101734.66
2022-11-07T09:58:01.643Z,101734.00
2022-11-07T10:00:31.431Z,101732.56
2022-11-07T10:03:01.805Z,101727.41
2022-11-07T10:05:44.294Z,101725.97
2022-11-07T10:08:17.194Z,101726.16
2022-11-07T10:10:53.669Z,101723.66
2022-11-07T10:13:57.702Z,101724.44
2022-11-07T10:16:47.793Z,101719.75
2022-11-07T10:19:21.515Z,101719.75
2022-11-07T10:22:03.850Z,101719.41
2022-11-07T10:24:56.865Z,101715.16
2022-11-07T10:27:26.295Z,101710.19
2022-11-07T10:29:56.064Z,101713.06
2022-11-07T10:32:57.416Z,101699.91
2022-11-07T10:35:42.106Z,101703.22
2022-11-07T10:38:28.645Z,101692.28
2022-11-07T10:40:58.750Z,101692.59
2022-11-07T10:43:36.526Z,101699.41
2022-11-07T10:46:18.243Z,101687.72
2022-11-07T10:48:56.853Z,101682.44
2022-11-07T10:51:41.138Z,101676.66
2022-11-07T10:54:33.657Z,101672.50
2022-11-07T10:57:16.401Z,101672.31
2022-11-07T10:59:55.328Z,101676.38
2022-11-07T11:02:29.442Z,101661.84
2022-11-07T11:05:05.927Z,101659.81
2022-11-07T11:07:44.739Z,101664.19
2022-11-07T11:10:22.821Z,101656.81
2022-11-07T11:12:51.284Z,101650.47
2022-11-07T11:15:23.037Z,101655.41
2022-11-07T11:18:12.823Z,101650.84
2022-11-07T11:21:03.253Z,101646.13
2022-11-07T11:23:32.659Z,101657.22
2022-11-07T11:26:06.370Z,101652.53
2022-11-07T11:28:43.523Z,101646.53
2022-11-07T11:31:21.182Z,101654.28
2022-11-07T11:33:54.427Z,101647.19
2022-11-07T11:36:24.601Z,101644.59
2022-11-07T11:38:59.101Z,101652.53
2022-11-07T11:41:42.396Z,101652.28
2022-11-07T11:44:23.388Z,101636.78
2022-11-07T11:47:13.248Z,101639.53
2022-11-07T11:49:46.887Z,101629.78
2022-11-07T11:52:20.313Z,101626.38
2022-11-07T11:54:56.713Z,101630.56
2022-11-07T11:57:53.810Z,101623.25
2022-11-07T12:00:22.890Z,101620.66
2022-11-07T12:03:14.876Z,101616.91
2022-11-07T12:05:51.864Z,101609.78
2022-11-07T12:08:58.170Z,101602.81
2022-11-07T12:11:56.245Z,101603.00
2022-11-07T12:14:39.860Z,101602.19
2022-11-07T12:17:10.127Z,101603.13
2022-11-07T12:19:49.614Z,101604.09
2022-11-07T12:23:01.631Z,101603.03
2022-11-07T12:25:32.020Z,101597.41
2022-11-07T12:28:40.999Z,101597.94
2022-11-07T12:31:30.016Z,101599.53
2022-11-07T12:34:27.724Z,101598.34
2022-11-07T12:37:28.627Z,101594.66
2022-11-07T12:40:09.536Z,101591.09
2022-11-07T12:43:00.148Z,101597.25
2022-11-07T12:46:14.393Z,101597.25
2022-11-07T12:49:00.527Z,101594.56
2022-11-07T12:52:05.020Z,101590.91
2022-11-07T12:54:43.195Z,101590.94
2022-11-07T12:57:17.295Z,101590.09
2022-11-07T12:59:49.925Z,101588.34
2022-11-07T13:02:43.530Z,101590.22
2022-11-07T13:05:31.354Z,101578.59
2022-11-07T13:08:14.755Z,101586.53
2022-11-07T13:11:10.337Z,101570.47
2022-11-07T13:14:19.554Z,101571.31
2022-11-07T13:16:53.163Z,101574.97
2022-11-07T13:19:32.718Z,101566.09
2022-11-07T13:22:08.556Z,101562.66
2022-11-07T13:24:39.184Z,101556.47
2022-11-07T13:27:22.821Z,101555.78
2022-11-07T13:29:52.810Z,101558.66
2022-11-07T13:32:20.093Z,101554.41
2022-11-07T13:34:54.288Z,101551.81
2022-11-07T13:37:30.174Z,101544.84
2022-11-07T13:40:05.497Z,101546.03
2022-11-07T13:42:33.781Z,101542.72
2022-11-07T13:45:38.404Z,101550.97
2022-11-07T13:48:35.262Z,101549.38
2022-11-07T13:51:33.692Z,101554.00
2022-11-07T13:54:26.446Z,101551.38
2022-11-07T13:57:07.788Z,101549.00
2022-11-07T13:59:53.764Z,101551.03
2022-11-07T14:02:48.389Z,101542.31
2022-11-07T14:05:21.140Z,101536.47
2022-11-07T14:07:51.468Z,101539.16
2022-11-07T14:10:29.634Z,101541.22
2022-11-07T14:13:03.731Z,101531.69
2022-11-07T14:15:40.107Z,101534.56
2022-11-07T14:18:25.292Z,101534.69
2022-11-07T14:20:57.391Z,101526.28
2022-11-07T14:23:34.715Z,101532.66
2022-11-07T14:26:32.901Z,101530.31
2022-11-07T14:29:07.592Z,101522.63
2022-11-07T14:31:40.180Z,101527.09
2022-11-07T14:34:21.061Z,101528.19
2022-11-07T14:37:15.074Z,101524.88
2022-11-07T14:39:49.192Z,101528.59
2022-11-07T14:42:23.452Z,101520.81
2022-11-07T14:44:55.147Z,101531.78
2022-11-07T14:47:25.863Z,101519.53
2022-11-07T14:49:53.835Z,101534.97
2022-11-07T14:52:34.761Z,101523.00
2022-11-07T14:55:35.148Z,101531.31
2022-11-07T14:58:05.338Z,101519.31
2022-11-07T15:01:21.066Z,101529.34
2022-11-07T15:04:16.364Z,101538.50
2022-11-07T15:06:45.462Z,101526.31
2022-11-07T15:09:14.902Z,101537.94
2022-11-07T15:11:55.709Z,101544.41
2022-11-07T15:14:36.663Z,101539.19
2022-11-07T15:17:26.483Z,101542.81
2022-11-07T15:20:07.294Z,101534.91
2022-11-07T15:22:39.394Z,101535.75
2022-11-07T15:25:25.243Z,101539.28
2022-11-07T15:27:55.374Z,101523.47
2022-11-07T15:30:31.200Z,101527.34
2022-11-07T15:33:02.799Z,101527.75
2022-11-07T15:35:45.038Z,101521.91
2022-11-07T15:38:29.714Z,101519.59
2022-11-07T15:40:59.216Z,101519.09
2022-11-07T15:43:26.653Z,101522.84
2022-11-07T15:46:06.099Z,101520.41
2022-11-07T15:48:41.041Z,101515.47
2022-11-07T15:51:11.540Z,101528.34
2022-11-07T15:53:39.741Z,101534.03
2022-11-07T15:56:33.209Z,101522.88
2022-11-07T15:59:07.798Z,101532.03
2022-11-07T16:01:37.167Z,101526.81
2022-11-07T16:04:06.898Z,101524.25
2022-11-07T16:06:41.961Z,101527.75
2022-11-07T16:09:22.645Z,101518.13
2022-11-07T16:11:52.692Z,101526.31
2022-11-07T16:17:17.471Z,101525.31
2022-11-07T16:19:48.241Z,101523.81
2022-11-07T16:22:18.130Z,101523.16
2022-11-07T16:24:52.970Z,101522.44
2022-11-07T16:27:20.317Z,101524.44
2022-11-07T16:29:53.301Z,101530.00
2022-11-07T16:32:22.156Z,101517.81
2022-11-07T16:34:54.012Z,101518.81
2022-11-07T16:37:29.704Z,101522.47
2022-11-07T16:39:56.969Z,101527.06
2022-11-07T16:42:24.233Z,101526.34
2022-11-07T16:44:53.254Z,101522.00
2022-11-07T16:47:27.437Z,101521.25
2022-11-07T16:50:02.129Z,101518.78
2022-11-07T16:52:30.083Z,101517.16
2022-11-07T16:55:01.422Z,101518.94
2022-11-07T16:57:56.073Z,101519.16
2022-11-07T17:00:24.203Z,101510.34
2022-11-07T17:02:57.534Z,101508.66
2022-11-07T17:05:25.299Z,101510.41
2022-11-07T17:07:55.941Z,101508.66
2022-11-07T17:10:23.946Z,101512.28
2022-11-07T17:12:54.375Z,101499.13
2022-11-07T17:15:27.449Z,101506.22
2022-11-07T17:18:07.228Z,101508.03
2022-11-07T17:20:50.565Z,101505.38
2022-11-07T17:23:28.562Z,101502.72
2022-11-07T17:26:04.973Z,101500.06
2022-11-07T17:28:36.383Z,101500.75
2022-11-07T17:31:09.471Z,101505.94
2022-11-07T17:33:36.823Z,101496.19
2022-11-07T17:36:05.154Z,101498.91
2022-11-07T17:38:32.597Z,101505.13
2022-11-07T17:41:17.241Z,101505.16
2022-11-07T17:43:45.664Z,101498.16
2022-11-07T17:46:23.695Z,101508.84
2022-11-07T17:48:51.673Z,101504.50
2022-11-07T17:51:19.330Z,101514.22
2022-11-07T17:53:50.874Z,101507.09
2022-11-07T17:56:23.822Z,101505.31
2022-11-07T17:59:01.407Z,101508.94
2022-11-07T18:01:35.061Z,101504.50
2022-11-07T18:04:06.043Z,101506.31
2022-11-07T18:06:41.492Z,101505.50
2022-11-07T18:09:13.348Z,101505.66
2022-11-07T18:15:04.623Z,101511.31
2022-11-07T18:20:19.781Z,101514.38
2022-11-07T18:22:50.147Z,101505.66
2022-11-07T18:25:17.616Z,101512.06
2022-11-07T18:27:51.774Z,101515.75
2022-11-07T18:30:20.797Z,101510.56
2022-11-07T18:40:38.963Z,101530.28
2022-11-07T18:43:11.694Z,101527.69
2022-11-07T18:45:41.645Z,101529.50
2022-11-07T18:48:19.648Z,101529.50
2022-11-07T18:50:51.496Z,101527.75
2022-11-07T18:53:19.070Z,101535.72
2022-11-07T18:55:57.841Z,101540.13
2022-11-07T18:58:25.495Z,101529.59
2022-11-07T19:00:52.720Z,101529.59
2022-11-07T19:03:20.180Z,101529.72
2022-11-07T19:05:49.976Z,101531.59
2022-11-07T19:08:17.573Z,101527.28
2022-11-07T19:10:47.693Z,101534.50
2022-11-07T19:13:18.765Z,101531.91
2022-11-07T19:15:49.066Z,101542.59
2022-11-07T19:18:19.142Z,101547.03
2022-11-07T19:20:56.376Z,101547.09
2022-11-07T19:23:40.179Z,101546.41
2022-11-07T19:26:19.758Z,101547.28
2022-11-07T19:28:54.264Z,101541.97
2022-11-07T19:31:22.356Z,101539.38
2022-11-07T19:33:52.459Z,101543.88
2022-11-07T19:36:21.704Z,101551.91
2022-11-07T19:38:49.929Z,101550.19
2022-11-07T19:41:36.859Z,101542.28
2022-11-07T19:44:04.685Z,101551.16
2022-11-07T19:46:35.301Z,101549.47
2022-11-07T19:49:05.954Z,101551.28
2022-11-07T19:51:36.998Z,101558.44
2022-11-07T19:54:11.737Z,101554.97
2022-11-07T19:56:57.472Z,101556.75
2022-11-07T19:59:28.191Z,101552.41
2022-11-07T20:02:26.117Z,101547.19
2022-11-07T20:04:49.644Z,101554.41
2022-11-07T20:07:17.723Z,101550.97
2022-11-07T20:09:45.106Z,101553.69
2022-11-07T20:12:14.175Z,101550.16
2022-11-07T20:14:45.939Z,101556.34
2022-11-07T20:17:13.451Z,101543.19
2022-11-07T20:19:43.734Z,101553.78
2022-11-07T20:22:13.588Z,101553.78
2022-11-07T20:24:40.953Z,101548.50
2022-11-07T20:27:10.284Z,101549.41
2022-11-07T20:29:39.598Z,101553.84
2022-11-07T20:32:07.611Z,101558.34
2022-11-07T20:34:36.256Z,101557.59
2022-11-07T20:37:23.306Z,101556.84
2022-11-07T20:40:14.825Z,101556.06
2022-11-07T20:42:46.086Z,101554.38
2022-11-07T20:45:16.870Z,101552.59
2022-11-07T20:47:47.841Z,101564.13
2022-11-07T20:50:19.424Z,101566.81
2022-11-07T20:53:25.742Z,101561.56
2022-11-07T20:56:15.322Z,101564.38
2022-11-07T20:59:19.066Z,101558.31
2022-11-07T21:02:03.894Z,101552.25
2022-11-07T21:09:39.597Z,101555.09
2022-11-07T21:44:08.234Z,101542.97
2022-11-07T21:46:37.557Z,101548.25
2022-11-07T21:49:07.921Z,101546.56
2022-11-07T21:51:35.789Z,101545.78
2022-11-07T21:54:05.459Z,101542.38
2022-11-07T21:57:43.134Z,101547.69
2022-11-07T22:00:11.746Z,101538.00
2022-11-07T22:02:39.578Z,101537.13
2022-11-07T22:05:08.512Z,101537.22
2022-11-07T22:07:38.233Z,101541.63
2022-11-07T22:10:06.200Z,101537.22
2022-11-07T22:12:46.746Z,101546.84
2022-11-07T22:15:17.751Z,101538.91
2022-11-07T22:17:47.405Z,101538.81
2022-11-07T22:20:21.210Z,101534.41
2022-11-07T22:22:50.937Z,101526.50
2022-11-07T22:25:34.916Z,101534.50
2022-11-07T22:28:04.654Z,101534.56
2022-11-07T22:30:37.710Z,101531.13
2022-11-07T22:33:07.049Z,101518.00
2022-11-07T22:35:34.742Z,101526.00
2022-11-07T22:38:07.894Z,101533.13
2022-11-07T22:40:37.551Z,101528.69
2022-11-07T22:43:05.556Z,101530.47
2022-11-07T22:45:33.043Z,101530.47
2022-11-07T22:48:00.497Z,101521.59
2022-11-07T22:50:33.308Z,101526.84
2022-11-07T22:53:05.997Z,101522.47
2022-11-07T22:55:37.425Z,101524.31
2022-11-07T22:58:04.868Z,101512.88
2022-11-07T23:00:33.589Z,101519.97
2022-11-07T23:03:00.980Z,101513.81
2022-11-07T23:05:28.298Z,101524.41
2022-11-07T23:07:55.607Z,101520.75
2022-11-07T23:10:23.777Z,101522.53
2022-11-07T23:12:51.243Z,101519.88
2022-11-07T23:15:19.380Z,101520.69
2022-11-07T23:17:47.768Z,101523.41
2022-11-07T23:20:36.239Z,101525.31
2022-11-07T23:23:05.048Z,101517.44
2022-11-07T23:25:32.656Z,101508.69
2022-11-07T23:27:59.948Z,101522.88
2022-11-07T23:30:30.291Z,101518.53
2022-11-07T23:32:57.502Z,101515.06
2022-11-07T23:35:25.183Z,101521.22
2022-11-07T23:37:52.545Z,101506.31
2022-11-07T23:40:21.563Z,101515.13
2022-11-07T23:42:49.443Z,101515.97
2022-11-07T23:45:35.539Z,101522.19
2022-11-07T23:48:31.255Z,101526.72
2022-11-07T23:51:02.965Z,101525.81
2022-11-07T23:53:55.041Z,101517.06
2022-11-07T23:56:24.369Z,101514.44
2022-11-07T23:59:11.184Z,101517.06
